sensor_id;sensor_type;location;lat;lon;timestamp;P1;durP1;ratioP1;P2;durP2;ratioP2
37201;SDS011;37799;52.390;6.136;2023-05-10T00:02:22;9.43;;;1.85;;
37201;SDS011;37799;52.390;6.136;2023-05-10T00:04:48;6.55;;;1.33;;
37201;SDS011;37799;52.390;6.136;2023-05-10T00:07:13;6.63;;;1.83;;
37201;SDS011;37799;52.390;6.136;2023-05-10T00:09:38;5.50;;;1.45;;
37201;SDS011;37799;52.390;6.136;2023-05-10T00:12:04;7.13;;;1.55;;
37201;SDS011;37799;52.390;6.136;2023-05-10T00:14:29;6.55;;;1.75;;
37201;SDS011;37799;52.390;6.136;2023-05-10T00:16:55;5.72;;;1.38;;
37201;SDS011;37799;52.390;6.136;2023-05-10T00:19:20;7.00;;;1.70;;
37201;SDS011;37799;52.390;6.136;2023-05-10T00:21:45;6.15;;;1.38;;
37201;SDS011;37799;52.390;6.136;2023-05-10T00:24:11;5.20;;;1.23;;
37201;SDS011;37799;52.390;6.136;2023-05-10T00:26:36;5.72;;;1.42;;
37201;SDS011;37799;52.390;6.136;2023-05-10T00:29:02;7.05;;;1.63;;
37201;SDS011;37799;52.390;6.136;2023-05-10T00:31:27;6.50;;;1.35;;
37201;SDS011;37799;52.390;6.136;2023-05-10T00:33:52;5.50;;;1.20;;
37201;SDS011;37799;52.390;6.136;2023-05-10T00:36:18;4.95;;;1.17;;
37201;SDS011;37799;52.390;6.136;2023-05-10T00:38:43;5.28;;;1.30;;
37201;SDS011;37799;52.390;6.136;2023-05-10T00:41:08;5.32;;;1.30;;
37201;SDS011;37799;52.390;6.136;2023-05-10T00:43:34;5.43;;;0.93;;
37201;SDS011;37799;52.390;6.136;2023-05-10T00:45:59;7.38;;;2.22;;
37201;SDS011;37799;52.390;6.136;2023-05-10T00:48:25;5.22;;;1.45;;
37201;SDS011;37799;52.390;6.136;2023-05-10T00:50:50;6.30;;;1.30;;
37201;SDS011;37799;52.390;6.136;2023-05-10T00:53:16;6.35;;;1.20;;
37201;SDS011;37799;52.390;6.136;2023-05-10T00:55:41;4.60;;;1.20;;
37201;SDS011;37799;52.390;6.136;2023-05-10T00:58:07;5.55;;;1.58;;
37201;SDS011;37799;52.390;6.136;2023-05-10T01:00:33;4.80;;;1.10;;
37201;SDS011;37799;52.390;6.136;2023-05-10T01:02:58;7.18;;;1.33;;
37201;SDS011;37799;52.390;6.136;2023-05-10T01:05:24;5.50;;;1.60;;
37201;SDS011;37799;52.390;6.136;2023-05-10T01:07:50;5.93;;;1.15;;
37201;SDS011;37799;52.390;6.136;2023-05-10T01:10:15;6.82;;;1.60;;
37201;SDS011;37799;52.390;6.136;2023-05-10T01:12:42;4.65;;;1.17;;
37201;SDS011;37799;52.390;6.136;2023-05-10T01:15:10;6.05;;;1.48;;
37201;SDS011;37799;52.390;6.136;2023-05-10T01:17:37;6.70;;;1.67;;
37201;SDS011;37799;52.390;6.136;2023-05-10T01:20:04;6.80;;;2.20;;
37201;SDS011;37799;52.390;6.136;2023-05-10T01:22:46;7.80;;;1.70;;
37201;SDS011;37799;52.390;6.136;2023-05-10T01:31:18;6.45;;;1.98;;
37201;SDS011;37799;52.390;6.136;2023-05-10T01:34:12;5.43;;;1.25;;
37201;SDS011;37799;52.390;6.136;2023-05-10T01:36:43;7.90;;;2.00;;
37201;SDS011;37799;52.390;6.136;2023-05-10T01:39:17;5.90;;;1.70;;
37201;SDS011;37799;52.390;6.136;2023-05-10T01:42:03;4.75;;;1.20;;
37201;SDS011;37799;52.390;6.136;2023-05-10T01:44:33;6.10;;;1.83;;
37201;SDS011;37799;52.390;6.136;2023-05-10T01:47:11;8.60;;;1.77;;
37201;SDS011;37799;52.390;6.136;2023-05-10T01:49:46;8.30;;;1.98;;
37201;SDS011;37799;52.390;6.136;2023-05-10T01:52:16;6.70;;;1.35;;
37201;SDS011;37799;52.390;6.136;2023-05-10T01:54:48;5.10;;;1.48;;
37201;SDS011;37799;52.390;6.136;2023-05-10T01:57:18;9.27;;;1.80;;
37201;SDS011;37799;52.390;6.136;2023-05-10T01:59:45;6.95;;;1.73;;
37201;SDS011;37799;52.390;6.136;2023-05-10T02:02:14;9.50;;;2.75;;
37201;SDS011;37799;52.390;6.136;2023-05-10T02:04:42;10.25;;;2.10;;
37201;SDS011;37799;52.390;6.136;2023-05-10T02:07:08;9.80;;;1.95;;
37201;SDS011;37799;52.390;6.136;2023-05-10T02:09:35;9.07;;;2.63;;
37201;SDS011;37799;52.390;6.136;2023-05-10T02:12:02;6.97;;;2.15;;
37201;SDS011;37799;52.390;6.136;2023-05-10T02:14:30;7.32;;;2.15;;
37201;SDS011;37799;52.390;6.136;2023-05-10T02:16:59;8.43;;;2.17;;
37201;SDS011;37799;52.390;6.136;2023-05-10T02:19:27;7.28;;;1.67;;
37201;SDS011;37799;52.390;6.136;2023-05-10T02:21:55;10.18;;;3.08;;
37201;SDS011;37799;52.390;6.136;2023-05-10T02:24:21;6.07;;;1.45;;
37201;SDS011;37799;52.390;6.136;2023-05-10T02:26:49;9.60;;;2.40;;
37201;SDS011;37799;52.390;6.136;2023-05-10T02:29:18;8.60;;;2.72;;
37201;SDS011;37799;52.390;6.136;2023-05-10T02:31:45;9.60;;;2.97;;
37201;SDS011;37799;52.390;6.136;2023-05-10T02:34:11;11.50;;;2.53;;
37201;SDS011;37799;52.390;6.136;2023-05-10T02:36:38;9.20;;;1.95;;
37201;SDS011;37799;52.390;6.136;2023-05-10T02:39:05;9.85;;;1.98;;
37201;SDS011;37799;52.390;6.136;2023-05-10T02:41:34;9.20;;;2.88;;
37201;SDS011;37799;52.390;6.136;2023-05-10T02:44:02;10.60;;;3.03;;
37201;SDS011;37799;52.390;6.136;2023-05-10T02:46:28;7.90;;;2.13;;
37201;SDS011;37799;52.390;6.136;2023-05-10T02:48:54;8.73;;;2.45;;
37201;SDS011;37799;52.390;6.136;2023-05-10T02:51:19;10.20;;;2.63;;
37201;SDS011;37799;52.390;6.136;2023-05-10T02:53:49;9.40;;;2.08;;
37201;SDS011;37799;52.390;6.136;2023-05-10T02:56:20;11.32;;;2.50;;
37201;SDS011;37799;52.390;6.136;2023-05-10T02:58:50;10.35;;;3.47;;
37201;SDS011;37799;52.390;6.136;2023-05-10T03:01:16;11.63;;;2.78;;
37201;SDS011;37799;52.390;6.136;2023-05-10T03:03:41;11.32;;;2.92;;
37201;SDS011;37799;52.390;6.136;2023-05-10T03:06:07;13.35;;;3.20;;
37201;SDS011;37799;52.390;6.136;2023-05-10T03:08:32;12.93;;;3.80;;
37201;SDS011;37799;52.390;6.136;2023-05-10T03:11:06;11.93;;;3.97;;
37201;SDS011;37799;52.390;6.136;2023-05-10T03:16:27;11.82;;;3.55;;
37201;SDS011;37799;52.390;6.136;2023-05-10T03:19:06;12.57;;;3.15;;
37201;SDS011;37799;52.390;6.136;2023-05-10T03:21:36;12.93;;;3.35;;
37201;SDS011;37799;52.390;6.136;2023-05-10T03:24:07;12.45;;;3.88;;
37201;SDS011;37799;52.390;6.136;2023-05-10T03:26:33;13.93;;;3.42;;
37201;SDS011;37799;52.390;6.136;2023-05-10T03:29:00;13.98;;;4.25;;
37201;SDS011;37799;52.390;6.136;2023-05-10T03:31:26;12.90;;;4.10;;
37201;SDS011;37799;52.390;6.136;2023-05-10T03:33:52;16.98;;;4.03;;
37201;SDS011;37799;52.390;6.136;2023-05-10T03:36:18;17.98;;;4.90;;
37201;SDS011;37799;52.390;6.136;2023-05-10T03:38:43;18.65;;;5.10;;
37201;SDS011;37799;52.390;6.136;2023-05-10T03:41:09;16.85;;;4.70;;
37201;SDS011;37799;52.390;6.136;2023-05-10T03:43:34;15.38;;;4.38;;
37201;SDS011;37799;52.390;6.136;2023-05-10T03:46:03;13.32;;;3.88;;
37201;SDS011;37799;52.390;6.136;2023-05-10T03:48:29;15.20;;;4.47;;
37201;SDS011;37799;52.390;6.136;2023-05-10T03:50:55;20.35;;;5.53;;
37201;SDS011;37799;52.390;6.136;2023-05-10T03:53:20;19.02;;;5.03;;
37201;SDS011;37799;52.390;6.136;2023-05-10T03:55:45;17.52;;;4.57;;
37201;SDS011;37799;52.390;6.136;2023-05-10T03:58:11;15.43;;;4.15;;
37201;SDS011;37799;52.390;6.136;2023-05-10T04:00:37;15.23;;;4.10;;
37201;SDS011;37799;52.390;6.136;2023-05-10T04:03:02;19.95;;;5.85;;
37201;SDS011;37799;52.390;6.136;2023-05-10T04:05:29;16.42;;;4.20;;
37201;SDS011;37799;52.390;6.136;2023-05-10T04:07:54;15.57;;;5.32;;
37201;SDS011;37799;52.390;6.136;2023-05-10T04:10:20;20.55;;;5.53;;
37201;SDS011;37799;52.390;6.136;2023-05-10T04:12:46;23.58;;;5.03;;
37201;SDS011;37799;52.390;6.136;2023-05-10T04:15:11;20.05;;;4.28;;
37201;SDS011;37799;52.390;6.136;2023-05-10T04:17:36;21.85;;;4.97;;
37201;SDS011;37799;52.390;6.136;2023-05-10T04:20:02;19.48;;;5.72;;
37201;SDS011;37799;52.390;6.136;2023-05-10T04:22:28;23.73;;;6.15;;
37201;SDS011;37799;52.390;6.136;2023-05-10T04:24:54;25.83;;;6.57;;
37201;SDS011;37799;52.390;6.136;2023-05-10T04:27:19;22.48;;;5.40;;
37201;SDS011;37799;52.390;6.136;2023-05-10T04:29:44;22.10;;;7.05;;
37201;SDS011;37799;52.390;6.136;2023-05-10T04:32:10;18.92;;;5.20;;
37201;SDS011;37799;52.390;6.136;2023-05-10T04:34:35;24.35;;;6.60;;
37201;SDS011;37799;52.390;6.136;2023-05-10T04:37:01;20.05;;;6.72;;
37201;SDS011;37799;52.390;6.136;2023-05-10T04:39:26;22.77;;;5.68;;
37201;SDS011;37799;52.390;6.136;2023-05-10T04:41:52;25.88;;;6.47;;
37201;SDS011;37799;52.390;6.136;2023-05-10T04:44:17;25.67;;;6.53;;
37201;SDS011;37799;52.390;6.136;2023-05-10T04:46:42;22.50;;;6.32;;
37201;SDS011;37799;52.390;6.136;2023-05-10T04:49:07;22.83;;;5.68;;
37201;SDS011;37799;52.390;6.136;2023-05-10T04:51:33;18.73;;;5.63;;
37201;SDS011;37799;52.390;6.136;2023-05-10T04:53:58;21.85;;;6.15;;
37201;SDS011;37799;52.390;6.136;2023-05-10T04:56:23;17.73;;;5.68;;
37201;SDS011;37799;52.390;6.136;2023-05-10T04:58:49;24.73;;;6.97;;
37201;SDS011;37799;52.390;6.136;2023-05-10T05:01:14;24.60;;;6.63;;
37201;SDS011;37799;52.390;6.136;2023-05-10T05:03:40;22.13;;;6.03;;
37201;SDS011;37799;52.390;6.136;2023-05-10T05:06:05;26.65;;;8.63;;
37201;SDS011;37799;52.390;6.136;2023-05-10T05:08:31;24.27;;;5.82;;
37201;SDS011;37799;52.390;6.136;2023-05-10T05:10:56;26.30;;;7.43;;
37201;SDS011;37799;52.390;6.136;2023-05-10T05:13:21;26.40;;;7.88;;
37201;SDS011;37799;52.390;6.136;2023-05-10T05:15:47;19.75;;;6.25;;
37201;SDS011;37799;52.390;6.136;2023-05-10T05:18:12;22.10;;;6.00;;
37201;SDS011;37799;52.390;6.136;2023-05-10T05:20:37;23.85;;;6.80;;
37201;SDS011;37799;52.390;6.136;2023-05-10T05:23:03;24.90;;;6.32;;
37201;SDS011;37799;52.390;6.136;2023-05-10T05:25:28;28.95;;;6.68;;
37201;SDS011;37799;52.390;6.136;2023-05-10T05:27:53;27.92;;;7.97;;
37201;SDS011;37799;52.390;6.136;2023-05-10T05:30:19;28.10;;;7.22;;
37201;SDS011;37799;52.390;6.136;2023-05-10T05:32:44;19.38;;;5.75;;
37201;SDS011;37799;52.390;6.136;2023-05-10T05:35:11;18.05;;;6.68;;
37201;SDS011;37799;52.390;6.136;2023-05-10T05:37:37;18.63;;;6.47;;
37201;SDS011;37799;52.390;6.136;2023-05-10T05:40:02;25.27;;;6.80;;
37201;SDS011;37799;52.390;6.136;2023-05-10T05:42:28;19.65;;;5.68;;
37201;SDS011;37799;52.390;6.136;2023-05-10T05:44:53;21.00;;;6.03;;
37201;SDS011;37799;52.390;6.136;2023-05-10T05:47:19;23.67;;;5.60;;
37201;SDS011;37799;52.390;6.136;2023-05-10T05:49:44;26.30;;;7.45;;
37201;SDS011;37799;52.390;6.136;2023-05-10T05:52:12;19.40;;;5.68;;
37201;SDS011;37799;52.390;6.136;2023-05-10T05:54:38;23.15;;;6.40;;
37201;SDS011;37799;52.390;6.136;2023-05-10T05:57:04;21.55;;;6.50;;
37201;SDS011;37799;52.390;6.136;2023-05-10T05:59:29;18.88;;;6.18;;
37201;SDS011;37799;52.390;6.136;2023-05-10T06:01:54;22.80;;;5.88;;
37201;SDS011;37799;52.390;6.136;2023-05-10T06:04:20;17.13;;;5.78;;
37201;SDS011;37799;52.390;6.136;2023-05-10T06:06:45;20.83;;;5.38;;
37201;SDS011;37799;52.390;6.136;2023-05-10T06:09:11;20.45;;;6.20;;
37201;SDS011;37799;52.390;6.136;2023-05-10T06:11:37;17.48;;;4.78;;
37201;SDS011;37799;52.390;6.136;2023-05-10T06:14:03;22.98;;;6.60;;
37201;SDS011;37799;52.390;6.136;2023-05-10T06:16:29;18.30;;;4.90;;
37201;SDS011;37799;52.390;6.136;2023-05-10T06:18:55;18.30;;;5.57;;
37201;SDS011;37799;52.390;6.136;2023-05-10T06:21:21;19.38;;;6.82;;
37201;SDS011;37799;52.390;6.136;2023-05-10T06:23:46;21.33;;;6.32;;
37201;SDS011;37799;52.390;6.136;2023-05-10T06:26:12;22.83;;;6.85;;
37201;SDS011;37799;52.390;6.136;2023-05-10T06:28:39;16.58;;;5.32;;
37201;SDS011;37799;52.390;6.136;2023-05-10T06:31:05;19.73;;;5.25;;
37201;SDS011;37799;52.390;6.136;2023-05-10T06:33:31;18.40;;;4.60;;
37201;SDS011;37799;52.390;6.136;2023-05-10T06:35:57;22.52;;;6.28;;
37201;SDS011;37799;52.390;6.136;2023-05-10T06:38:22;19.48;;;5.60;;
37201;SDS011;37799;52.390;6.136;2023-05-10T06:40:48;21.85;;;6.13;;
37201;SDS011;37799;52.390;6.136;2023-05-10T06:43:13;18.50;;;5.70;;
37201;SDS011;37799;52.390;6.136;2023-05-10T06:45:39;18.67;;;5.32;;
37201;SDS011;37799;52.390;6.136;2023-05-10T06:48:04;20.92;;;5.60;;
37201;SDS011;37799;52.390;6.136;2023-05-10T06:50:30;19.27;;;5.15;;
37201;SDS011;37799;52.390;6.136;2023-05-10T06:52:55;17.95;;;4.65;;
37201;SDS011;37799;52.390;6.136;2023-05-10T06:55:20;14.90;;;5.22;;
37201;SDS011;37799;52.390;6.136;2023-05-10T06:57:46;16.00;;;5.07;;
37201;SDS011;37799;52.390;6.136;2023-05-10T07:00:12;14.85;;;3.55;;
37201;SDS011;37799;52.390;6.136;2023-05-10T07:02:38;14.00;;;3.83;;
37201;SDS011;37799;52.390;6.136;2023-05-10T07:05:04;18.05;;;4.85;;
37201;SDS011;37799;52.390;6.136;2023-05-10T07:07:30;14.02;;;3.40;;
37201;SDS011;37799;52.390;6.136;2023-05-10T07:09:55;12.35;;;3.47;;
37201;SDS011;37799;52.390;6.136;2023-05-10T07:12:22;10.60;;;2.88;;
37201;SDS011;37799;52.390;6.136;2023-05-10T07:14:47;13.30;;;2.70;;
37201;SDS011;37799;52.390;6.136;2023-05-10T07:17:13;12.18;;;3.08;;
37201;SDS011;37799;52.390;6.136;2023-05-10T07:19:38;9.38;;;3.03;;
37201;SDS011;37799;52.390;6.136;2023-05-10T07:22:03;11.93;;;2.65;;
37201;SDS011;37799;52.390;6.136;2023-05-10T07:24:29;11.43;;;2.38;;
37201;SDS011;37799;52.390;6.136;2023-05-10T07:26:56;14.43;;;3.20;;
37201;SDS011;37799;52.390;6.136;2023-05-10T07:29:21;9.45;;;2.15;;
37201;SDS011;37799;52.390;6.136;2023-05-10T07:31:46;9.80;;;3.00;;
37201;SDS011;37799;52.390;6.136;2023-05-10T07:34:12;10.68;;;2.45;;
37201;SDS011;37799;52.390;6.136;2023-05-10T07:36:37;6.68;;;1.95;;
37201;SDS011;37799;52.390;6.136;2023-05-10T07:39:02;7.80;;;2.47;;
37201;SDS011;37799;52.390;6.136;2023-05-10T07:41:28;11.68;;;3.03;;
37201;SDS011;37799;52.390;6.136;2023-05-10T07:43:53;6.53;;;1.73;;
37201;SDS011;37799;52.390;6.136;2023-05-10T07:46:19;6.55;;;1.75;;
37201;SDS011;37799;52.390;6.136;2023-05-10T07:48:44;6.20;;;1.83;;
37201;SDS011;37799;52.390;6.136;2023-05-10T07:51:10;6.40;;;1.58;;
37201;SDS011;37799;52.390;6.136;2023-05-10T07:53:35;5.72;;;1.45;;
37201;SDS011;37799;52.390;6.136;2023-05-10T07:56:19;8.80;;;1.92;;
37201;SDS011;37799;52.390;6.136;2023-05-10T07:58:45;8.52;;;1.27;;
37201;SDS011;37799;52.390;6.136;2023-05-10T08:01:10;5.93;;;1.23;;
37201;SDS011;37799;52.390;6.136;2023-05-10T08:03:35;8.18;;;1.67;;
37201;SDS011;37799;52.390;6.136;2023-05-10T08:06:00;5.90;;;1.23;;
37201;SDS011;37799;52.390;6.136;2023-05-10T08:08:26;4.22;;;1.00;;
37201;SDS011;37799;52.390;6.136;2023-05-10T08:10:51;5.88;;;1.33;;
37201;SDS011;37799;52.390;6.136;2023-05-10T08:13:17;4.88;;;1.25;;
37201;SDS011;37799;52.390;6.136;2023-05-10T08:15:42;4.60;;;1.00;;
37201;SDS011;37799;52.390;6.136;2023-05-10T08:18:07;5.32;;;1.10;;
37201;SDS011;37799;52.390;6.136;2023-05-10T08:20:32;4.75;;;1.05;;
37201;SDS011;37799;52.390;6.136;2023-05-10T08:22:58;4.90;;;1.33;;
37201;SDS011;37799;52.390;6.136;2023-05-10T08:25:23;3.78;;;1.05;;
37201;SDS011;37799;52.390;6.136;2023-05-10T08:27:49;6.60;;;1.15;;
37201;SDS011;37799;52.390;6.136;2023-05-10T08:30:14;4.70;;;1.40;;
37201;SDS011;37799;52.390;6.136;2023-05-10T08:32:40;4.13;;;0.70;;
37201;SDS011;37799;52.390;6.136;2023-05-10T08:35:05;3.20;;;0.65;;
37201;SDS011;37799;52.390;6.136;2023-05-10T08:37:31;2.63;;;0.60;;
37201;SDS011;37799;52.390;6.136;2023-05-10T08:39:57;4.20;;;0.65;;
37201;SDS011;37799;52.390;6.136;2023-05-10T08:42:22;4.55;;;0.98;;
37201;SDS011;37799;52.390;6.136;2023-05-10T08:44:53;2.38;;;0.50;;
37201;SDS011;37799;52.390;6.136;2023-05-10T08:47:21;3.53;;;0.88;;
37201;SDS011;37799;52.390;6.136;2023-05-10T08:49:47;2.53;;;0.63;;
37201;SDS011;37799;52.390;6.136;2023-05-10T08:52:16;4.70;;;0.55;;
37201;SDS011;37799;52.390;6.136;2023-05-10T08:54:42;4.40;;;0.70;;
37201;SDS011;37799;52.390;6.136;2023-05-10T08:57:09;3.95;;;0.70;;
37201;SDS011;37799;52.390;6.136;2023-05-10T08:59:35;3.25;;;0.60;;
37201;SDS011;37799;52.390;6.136;2023-05-10T09:02:04;4.35;;;0.80;;
37201;SDS011;37799;52.390;6.136;2023-05-10T09:04:30;4.55;;;1.00;;
37201;SDS011;37799;52.390;6.136;2023-05-10T09:06:56;3.92;;;0.82;;
37201;SDS011;37799;52.390;6.136;2023-05-10T09:09:22;4.00;;;0.75;;
37201;SDS011;37799;52.390;6.136;2023-05-10T09:11:49;3.08;;;0.47;;
37201;SDS011;37799;52.390;6.136;2023-05-10T09:14:14;3.25;;;0.77;;
37201;SDS011;37799;52.390;6.136;2023-05-10T09:16:40;4.00;;;0.90;;
37201;SDS011;37799;52.390;6.136;2023-05-10T09:19:06;6.53;;;1.10;;
37201;SDS011;37799;52.390;6.136;2023-05-10T09:21:33;6.50;;;1.23;;
37201;SDS011;37799;52.390;6.136;2023-05-10T09:24:04;5.93;;;1.23;;
37201;SDS011;37799;52.390;6.136;2023-05-10T09:26:33;3.90;;;1.20;;
37201;SDS011;37799;52.390;6.136;2023-05-10T09:29:02;4.38;;;1.10;;
37201;SDS011;37799;52.390;6.136;2023-05-10T09:31:43;5.80;;;1.15;;
37201;SDS011;37799;52.390;6.136;2023-05-10T09:34:20;3.15;;;0.68;;
37201;SDS011;37799;52.390;6.136;2023-05-10T09:37:01;4.55;;;0.90;;
37201;SDS011;37799;52.390;6.136;2023-05-10T09:39:35;5.03;;;1.05;;
37201;SDS011;37799;52.390;6.136;2023-05-10T09:42:05;4.40;;;1.05;;
37201;SDS011;37799;52.390;6.136;2023-05-10T09:44:33;3.67;;;0.73;;
37201;SDS011;37799;52.390;6.136;2023-05-10T09:47:05;4.22;;;1.15;;
37201;SDS011;37799;52.390;6.136;2023-05-10T09:49:34;3.88;;;0.80;;
37201;SDS011;37799;52.390;6.136;2023-05-10T09:52:02;3.75;;;1.00;;
37201;SDS011;37799;52.390;6.136;2023-05-10T09:54:29;4.00;;;0.90;;
37201;SDS011;37799;52.390;6.136;2023-05-10T09:56:54;4.97;;;1.30;;
37201;SDS011;37799;52.390;6.136;2023-05-10T09:59:20;6.97;;;1.70;;
37201;SDS011;37799;52.390;6.136;2023-05-10T10:01:52;4.95;;;1.02;;
37201;SDS011;37799;52.390;6.136;2023-05-10T10:04:20;3.63;;;0.70;;
37201;SDS011;37799;52.390;6.136;2023-05-10T10:06:46;3.30;;;0.65;;
37201;SDS011;37799;52.390;6.136;2023-05-10T10:09:22;4.38;;;0.60;;
37201;SDS011;37799;52.390;6.136;2023-05-10T10:11:48;2.75;;;0.60;;
37201;SDS011;37799;52.390;6.136;2023-05-10T10:14:14;3.63;;;0.60;;
37201;SDS011;37799;52.390;6.136;2023-05-10T10:16:39;2.78;;;0.60;;
37201;SDS011;37799;52.390;6.136;2023-05-10T10:19:05;6.95;;;0.93;;
37201;SDS011;37799;52.390;6.136;2023-05-10T10:21:31;3.15;;;0.70;;
37201;SDS011;37799;52.390;6.136;2023-05-10T10:23:57;3.28;;;0.70;;
37201;SDS011;37799;52.390;6.136;2023-05-10T10:26:23;4.00;;;0.73;;
37201;SDS011;37799;52.390;6.136;2023-05-10T10:31:37;2.65;;;0.60;;
37201;SDS011;37799;52.390;6.136;2023-05-10T10:34:09;4.80;;;0.75;;
37201;SDS011;37799;52.390;6.136;2023-05-10T10:36:45;3.83;;;1.00;;
37201;SDS011;37799;52.390;6.136;2023-05-10T10:39:11;5.05;;;0.73;;
37201;SDS011;37799;52.390;6.136;2023-05-10T10:41:39;2.65;;;0.35;;
37201;SDS011;37799;52.390;6.136;2023-05-10T10:47:04;3.33;;;0.40;;
37201;SDS011;37799;52.390;6.136;2023-05-10T10:52:22;1.80;;;0.35;;
37201;SDS011;37799;52.390;6.136;2023-05-10T10:54:57;2.35;;;0.38;;
37201;SDS011;37799;52.390;6.136;2023-05-10T10:57:25;2.85;;;0.40;;
37201;SDS011;37799;52.390;6.136;2023-05-10T10:59:51;1.92;;;0.38;;
37201;SDS011;37799;52.390;6.136;2023-05-10T11:02:46;1.67;;;0.40;;
37201;SDS011;37799;52.390;6.136;2023-05-10T11:07:54;2.33;;;0.50;;
37201;SDS011;37799;52.390;6.136;2023-05-10T11:10:21;1.88;;;0.35;;
37201;SDS011;37799;52.390;6.136;2023-05-10T11:16:13;1.90;;;0.43;;
37201;SDS011;37799;52.390;6.136;2023-05-10T11:18:40;2.35;;;0.60;;
37201;SDS011;37799;52.390;6.136;2023-05-10T11:21:07;2.58;;;0.40;;
37201;SDS011;37799;52.390;6.136;2023-05-10T11:26:09;2.38;;;0.40;;
37201;SDS011;37799;52.390;6.136;2023-05-10T11:28:43;2.47;;;0.55;;
37201;SDS011;37799;52.390;6.136;2023-05-10T11:31:13;1.83;;;0.30;;
37201;SDS011;37799;52.390;6.136;2023-05-10T11:33:43;3.33;;;0.55;;
37201;SDS011;37799;52.390;6.136;2023-05-10T11:36:13;2.28;;;0.40;;
37201;SDS011;37799;52.390;6.136;2023-05-10T11:41:05;2.53;;;0.60;;
37201;SDS011;37799;52.390;6.136;2023-05-10T11:43:34;3.83;;;0.85;;
37201;SDS011;37799;52.390;6.136;2023-05-10T11:46:00;3.78;;;0.80;;
37201;SDS011;37799;52.390;6.136;2023-05-10T11:48:25;3.55;;;0.60;;
37201;SDS011;37799;52.390;6.136;2023-05-10T11:50:51;3.63;;;0.60;;
37201;SDS011;37799;52.390;6.136;2023-05-10T11:53:17;5.07;;;1.08;;
37201;SDS011;37799;52.390;6.136;2023-05-10T11:55:45;5.28;;;1.10;;
37201;SDS011;37799;52.390;6.136;2023-05-10T11:58:10;4.90;;;1.20;;
37201;SDS011;37799;52.390;6.136;2023-05-10T12:00:36;2.70;;;0.80;;
37201;SDS011;37799;52.390;6.136;2023-05-10T12:03:01;3.55;;;0.50;;
37201;SDS011;37799;52.390;6.136;2023-05-10T12:05:28;3.80;;;0.60;;
37201;SDS011;37799;52.390;6.136;2023-05-10T12:08:10;2.65;;;0.47;;
37201;SDS011;37799;52.390;6.136;2023-05-10T12:10:36;3.78;;;0.65;;
37201;SDS011;37799;52.390;6.136;2023-05-10T12:13:02;3.38;;;0.80;;
37201;SDS011;37799;52.390;6.136;2023-05-10T12:15:28;4.30;;;0.77;;
37201;SDS011;37799;52.390;6.136;2023-05-10T12:17:54;5.32;;;0.70;;
37201;SDS011;37799;52.390;6.136;2023-05-10T12:20:22;4.13;;;0.57;;
37201;SDS011;37799;52.390;6.136;2023-05-10T12:22:50;3.63;;;0.73;;
37201;SDS011;37799;52.390;6.136;2023-05-10T12:25:20;3.50;;;0.60;;
37201;SDS011;37799;52.390;6.136;2023-05-10T12:27:51;5.07;;;1.08;;
37201;SDS011;37799;52.390;6.136;2023-05-10T12:33:01;3.28;;;0.68;;
37201;SDS011;37799;52.390;6.136;2023-05-10T12:35:32;3.95;;;1.05;;
37201;SDS011;37799;52.390;6.136;2023-05-10T12:37:58;2.65;;;0.60;;
37201;SDS011;37799;52.390;6.136;2023-05-10T12:40:23;4.68;;;0.95;;
37201;SDS011;37799;52.390;6.136;2023-05-10T12:42:49;4.05;;;1.02;;
37201;SDS011;37799;52.390;6.136;2023-05-10T12:45:16;3.88;;;0.80;;
37201;SDS011;37799;52.390;6.136;2023-05-10T12:47:43;1.77;;;0.50;;
37201;SDS011;37799;52.390;6.136;2023-05-10T12:50:08;3.60;;;0.70;;
37201;SDS011;37799;52.390;6.136;2023-05-10T12:52:34;3.17;;;0.68;;
37201;SDS011;37799;52.390;6.136;2023-05-10T12:54:59;4.40;;;1.02;;
37201;SDS011;37799;52.390;6.136;2023-05-10T12:57:25;3.28;;;1.10;;
37201;SDS011;37799;52.390;6.136;2023-05-10T12:59:51;3.38;;;0.68;;
37201;SDS011;37799;52.390;6.136;2023-05-10T13:02:16;3.85;;;0.77;;
37201;SDS011;37799;52.390;6.136;2023-05-10T13:04:46;3.33;;;0.77;;
37201;SDS011;37799;52.390;6.136;2023-05-10T13:07:11;2.95;;;0.75;;
37201;SDS011;37799;52.390;6.136;2023-05-10T13:09:37;4.13;;;0.75;;
37201;SDS011;37799;52.390;6.136;2023-05-10T13:12:02;4.15;;;0.70;;
37201;SDS011;37799;52.390;6.136;2023-05-10T13:14:28;3.95;;;0.75;;
37201;SDS011;37799;52.390;6.136;2023-05-10T13:16:54;3.58;;;0.90;;
37201;SDS011;37799;52.390;6.136;2023-05-10T13:19:20;3.90;;;0.73;;
37201;SDS011;37799;52.390;6.136;2023-05-10T13:21:45;3.65;;;0.90;;
37201;SDS011;37799;52.390;6.136;2023-05-10T13:24:11;5.22;;;0.93;;
37201;SDS011;37799;52.390;6.136;2023-05-10T13:26:38;3.03;;;0.60;;
37201;SDS011;37799;52.390;6.136;2023-05-10T13:29:14;5.47;;;0.80;;
37201;SDS011;37799;52.390;6.136;2023-05-10T13:31:42;3.95;;;1.15;;
37201;SDS011;37799;52.390;6.136;2023-05-10T13:34:07;3.75;;;1.02;;
37201;SDS011;37799;52.390;6.136;2023-05-10T13:36:33;3.45;;;0.73;;
37201;SDS011;37799;52.390;6.136;2023-05-10T13:38:58;4.78;;;0.88;;
37201;SDS011;37799;52.390;6.136;2023-05-10T13:41:23;4.20;;;0.80;;
37201;SDS011;37799;52.390;6.136;2023-05-10T13:43:49;4.00;;;0.85;;
37201;SDS011;37799;52.390;6.136;2023-05-10T13:46:14;5.63;;;1.00;;
37201;SDS011;37799;52.390;6.136;2023-05-10T13:48:39;4.20;;;0.97;;
37201;SDS011;37799;52.390;6.136;2023-05-10T13:51:05;4.37;;;1.00;;
37201;SDS011;37799;52.390;6.136;2023-05-10T13:53:30;3.90;;;1.08;;
37201;SDS011;37799;52.390;6.136;2023-05-10T13:55:55;7.63;;;1.33;;
37201;SDS011;37799;52.390;6.136;2023-05-10T13:58:21;6.22;;;1.25;;
37201;SDS011;37799;52.390;6.136;2023-05-10T14:00:46;5.15;;;1.08;;
37201;SDS011;37799;52.390;6.136;2023-05-10T14:03:11;5.85;;;1.02;;
37201;SDS011;37799;52.390;6.136;2023-05-10T14:05:37;6.05;;;1.25;;
37201;SDS011;37799;52.390;6.136;2023-05-10T14:08:02;4.75;;;1.13;;
37201;SDS011;37799;52.390;6.136;2023-05-10T14:10:29;6.90;;;1.63;;
37201;SDS011;37799;52.390;6.136;2023-05-10T14:12:55;4.20;;;0.85;;
37201;SDS011;37799;52.390;6.136;2023-05-10T14:15:20;6.57;;;1.58;;
37201;SDS011;37799;52.390;6.136;2023-05-10T14:17:45;5.68;;;1.33;;
37201;SDS011;37799;52.390;6.136;2023-05-10T14:20:11;5.67;;;1.37;;
37201;SDS011;37799;52.390;6.136;2023-05-10T14:22:36;7.90;;;1.30;;
37201;SDS011;37799;52.390;6.136;2023-05-10T14:25:01;6.30;;;1.33;;
37201;SDS011;37799;52.390;6.136;2023-05-10T14:27:27;7.43;;;1.10;;
37201;SDS011;37799;52.390;6.136;2023-05-10T14:29:52;5.90;;;1.23;;
37201;SDS011;37799;52.390;6.136;2023-05-10T14:32:18;4.75;;;1.23;;
37201;SDS011;37799;52.390;6.136;2023-05-10T14:34:43;5.18;;;1.27;;
37201;SDS011;37799;52.390;6.136;2023-05-10T14:37:13;5.70;;;1.10;;
37201;SDS011;37799;52.390;6.136;2023-05-10T14:39:39;4.18;;;1.20;;
37201;SDS011;37799;52.390;6.136;2023-05-10T14:42:04;4.75;;;1.13;;
37201;SDS011;37799;52.390;6.136;2023-05-10T14:44:29;5.47;;;1.10;;
37201;SDS011;37799;52.390;6.136;2023-05-10T14:46:55;6.00;;;1.08;;
37201;SDS011;37799;52.390;6.136;2023-05-10T14:49:21;5.93;;;1.30;;
37201;SDS011;37799;52.390;6.136;2023-05-10T14:51:47;4.93;;;0.95;;
37201;SDS011;37799;52.390;6.136;2023-05-10T14:54:13;4.65;;;1.10;;
37201;SDS011;37799;52.390;6.136;2023-05-10T14:56:38;4.50;;;0.98;;
37201;SDS011;37799;52.390;6.136;2023-05-10T14:59:04;4.93;;;1.10;;
37201;SDS011;37799;52.390;6.136;2023-05-10T15:01:29;5.75;;;1.05;;
37201;SDS011;37799;52.390;6.136;2023-05-10T15:03:56;4.75;;;1.42;;
37201;SDS011;37799;52.390;6.136;2023-05-10T15:06:30;6.17;;;1.30;;
37201;SDS011;37799;52.390;6.136;2023-05-10T15:08:56;4.03;;;1.15;;
37201;SDS011;37799;52.390;6.136;2023-05-10T15:11:22;3.75;;;1.00;;
37201;SDS011;37799;52.390;6.136;2023-05-10T15:13:47;6.50;;;1.50;;